sensor_id;sensor_type;location;lat;lon;timestamp;P1;durP1;ratioP1;P2;durP2;ratioP2
58982;SDS011;44771;49.982;8.560;2023-06-01T00:02:08;13.32;;;12.30;;
58982;SDS011;44771;49.982;8.560;2023-06-01T00:07:11;14.32;;;13.15;;
58982;SDS011;44771;49.982;8.560;2023-06-01T00:12:13;14.43;;;12.98;;
58982;SDS011;44771;49.982;8.560;2023-06-01T00:17:15;14.02;;;12.95;;
58982;SDS011;44771;49.982;8.560;2023-06-01T00:22:18;14.45;;;13.55;;
58982;SDS011;44771;49.982;8.560;2023-06-01T00:27:20;14.23;;;13.00;;
58982;SDS011;44771;49.982;8.560;2023-06-01T00:32:22;13.65;;;12.65;;
58982;SDS011;44771;49.982;8.560;2023-06-01T00:37:25;14.87;;;13.60;;
58982;SDS011;44771;49.982;8.560;2023-06-01T00:42:27;15.30;;;13.98;;
58982;SDS011;44771;49.982;8.560;2023-06-01T00:47:28;14.05;;;12.90;;
58982;SDS011;44771;49.982;8.560;2023-06-01T00:52:32;14.27;;;13.10;;
58982;SDS011;44771;49.982;8.560;2023-06-01T00:57:34;14.70;;;13.43;;
58982;SDS011;44771;49.982;8.560;2023-06-01T01:02:37;14.45;;;13.45;;
58982;SDS011;44771;49.982;8.560;2023-06-01T01:07:46;15.02;;;13.73;;
58982;SDS011;44771;49.982;8.560;2023-06-01T01:12:54;16.30;;;15.05;;
58982;SDS011;44771;49.982;8.560;2023-06-01T01:18:02;15.60;;;14.25;;
58982;SDS011;44771;49.982;8.560;2023-06-01T01:23:09;19.23;;;13.53;;
58982;SDS011;44771;49.982;8.560;2023-06-01T01:28:28;14.85;;;13.85;;
58982;SDS011;44771;49.982;8.560;2023-06-01T01:33:34;15.65;;;14.40;;
58982;SDS011;44771;49.982;8.560;2023-06-01T01:38:37;14.82;;;13.62;;
58982;SDS011;44771;49.982;8.560;2023-06-01T01:43:41;14.20;;;12.82;;
58982;SDS011;44771;49.982;8.560;2023-06-01T01:48:44;15.40;;;14.10;;
58982;SDS011;44771;49.982;8.560;2023-06-01T01:53:53;14.00;;;13.00;;
58982;SDS011;44771;49.982;8.560;2023-06-01T01:58:58;14.15;;;13.05;;
58982;SDS011;44771;49.982;8.560;2023-06-01T02:04:01;14.87;;;13.77;;
58982;SDS011;44771;49.982;8.560;2023-06-01T02:09:05;14.20;;;13.07;;
58982;SDS011;44771;49.982;8.560;2023-06-01T02:14:08;15.57;;;13.02;;
58982;SDS011;44771;49.982;8.560;2023-06-01T02:19:10;12.93;;;11.82;;
58982;SDS011;44771;49.982;8.560;2023-06-01T02:24:13;15.27;;;14.18;;
58982;SDS011;44771;49.982;8.560;2023-06-01T02:29:16;14.73;;;13.60;;
58982;SDS011;44771;49.982;8.560;2023-06-01T02:34:18;13.52;;;12.52;;
58982;SDS011;44771;49.982;8.560;2023-06-01T02:39:20;16.30;;;14.52;;
58982;SDS011;44771;49.982;8.560;2023-06-01T02:44:23;14.82;;;13.62;;
58982;SDS011;44771;49.982;8.560;2023-06-01T02:49:25;15.07;;;13.50;;
58982;SDS011;44771;49.982;8.560;2023-06-01T02:54:27;15.50;;;14.07;;
58982;SDS011;44771;49.982;8.560;2023-06-01T02:59:30;14.18;;;13.20;;
58982;SDS011;44771;49.982;8.560;2023-06-01T03:04:32;14.27;;;13.25;;
58982;SDS011;44771;49.982;8.560;2023-06-01T03:09:34;15.95;;;13.30;;
58982;SDS011;44771;49.982;8.560;2023-06-01T03:14:37;13.85;;;12.85;;
58982;SDS011;44771;49.982;8.560;2023-06-01T03:19:41;13.20;;;11.90;;
58982;SDS011;44771;49.982;8.560;2023-06-01T03:24:43;20.08;;;12.82;;
58982;SDS011;44771;49.982;8.560;2023-06-01T03:29:46;15.18;;;13.88;;
58982;SDS011;44771;49.982;8.560;2023-06-01T03:34:48;15.80;;;14.35;;
58982;SDS011;44771;49.982;8.560;2023-06-01T03:39:50;15.25;;;14.00;;
58982;SDS011;44771;49.982;8.560;2023-06-01T03:44:53;13.38;;;12.30;;
58982;SDS011;44771;49.982;8.560;2023-06-01T03:49:55;14.68;;;13.48;;
58982;SDS011;44771;49.982;8.560;2023-06-01T03:54:57;14.98;;;13.80;;
58982;SDS011;44771;49.982;8.560;2023-06-01T04:00:01;14.85;;;13.55;;
58982;SDS011;44771;49.982;8.560;2023-06-01T04:05:03;15.75;;;14.18;;
58982;SDS011;44771;49.982;8.560;2023-06-01T04:10:06;14.95;;;13.55;;
58982;SDS011;44771;49.982;8.560;2023-06-01T04:15:10;15.32;;;13.93;;
58982;SDS011;44771;49.982;8.560;2023-06-01T04:20:13;15.43;;;14.07;;
58982;SDS011;44771;49.982;8.560;2023-06-01T04:25:16;15.07;;;13.52;;
58982;SDS011;44771;49.982;8.560;2023-06-01T04:30:19;16.00;;;14.40;;
58982;SDS011;44771;49.982;8.560;2023-06-01T04:35:21;15.13;;;13.55;;
58982;SDS011;44771;49.982;8.560;2023-06-01T04:40:23;14.00;;;12.75;;
58982;SDS011;44771;49.982;8.560;2023-06-01T04:45:26;13.80;;;12.77;;
58982;SDS011;44771;49.982;8.560;2023-06-01T04:50:28;19.62;;;12.77;;
58982;SDS011;44771;49.982;8.560;2023-06-01T04:55:30;13.07;;;11.77;;
58982;SDS011;44771;49.982;8.560;2023-06-01T05:00:34;14.25;;;12.98;;
58982;SDS011;44771;49.982;8.560;2023-06-01T05:05:38;14.55;;;13.32;;
58982;SDS011;44771;49.982;8.560;2023-06-01T05:10:41;15.85;;;12.25;;
58982;SDS011;44771;49.982;8.560;2023-06-01T05:15:44;13.95;;;12.65;;
58982;SDS011;44771;49.982;8.560;2023-06-01T05:20:46;13.38;;;12.20;;
58982;SDS011;44771;49.982;8.560;2023-06-01T05:25:48;11.85;;;10.85;;
58982;SDS011;44771;49.982;8.560;2023-06-01T05:30:54;14.23;;;12.77;;
58982;SDS011;44771;49.982;8.560;2023-06-01T05:35:56;13.68;;;12.25;;
58982;SDS011;44771;49.982;8.560;2023-06-01T05:40:58;18.10;;;11.75;;
58982;SDS011;44771;49.982;8.560;2023-06-01T05:46:02;12.30;;;11.43;;
58982;SDS011;44771;49.982;8.560;2023-06-01T05:51:04;14.35;;;12.13;;
58982;SDS011;44771;49.982;8.560;2023-06-01T05:56:06;12.43;;;11.43;;
58982;SDS011;44771;49.982;8.560;2023-06-01T06:01:09;13.35;;;12.05;;
58982;SDS011;44771;49.982;8.560;2023-06-01T06:06:11;13.18;;;11.98;;
58982;SDS011;44771;49.982;8.560;2023-06-01T06:11:13;12.77;;;11.65;;
58982;SDS011;44771;49.982;8.560;2023-06-01T06:16:19;12.57;;;11.43;;
58982;SDS011;44771;49.982;8.560;2023-06-01T06:21:21;11.80;;;10.57;;
58982;SDS011;44771;49.982;8.560;2023-06-01T06:26:22;13.27;;;12.00;;
58982;SDS011;44771;49.982;8.560;2023-06-01T06:31:26;12.00;;;11.02;;
58982;SDS011;44771;49.982;8.560;2023-06-01T06:36:28;12.27;;;11.23;;
58982;SDS011;44771;49.982;8.560;2023-06-01T06:41:29;12.35;;;11.45;;
58982;SDS011;44771;49.982;8.560;2023-06-01T06:46:33;12.85;;;11.55;;
58982;SDS011;44771;49.982;8.560;2023-06-01T06:51:36;13.70;;;12.70;;
58982;SDS011;44771;49.982;8.560;2023-06-01T06:56:38;12.63;;;10.85;;
58982;SDS011;44771;49.982;8.560;2023-06-01T07:01:41;12.77;;;11.63;;
58982;SDS011;44771;49.982;8.560;2023-06-01T07:06:43;12.95;;;11.68;;
58982;SDS011;44771;49.982;8.560;2023-06-01T07:11:45;12.25;;;11.25;;
58982;SDS011;44771;49.982;8.560;2023-06-01T07:16:48;11.75;;;10.70;;
58982;SDS011;44771;49.982;8.560;2023-06-01T07:21:50;13.75;;;12.45;;
58982;SDS011;44771;49.982;8.560;2023-06-01T07:26:52;13.60;;;12.32;;
58982;SDS011;44771;49.982;8.560;2023-06-01T07:31:56;12.43;;;11.38;;
58982;SDS011;44771;49.982;8.560;2023-06-01T07:36:58;12.50;;;9.88;;
58982;SDS011;44771;49.982;8.560;2023-06-01T07:42:17;13.18;;;10.95;;
58982;SDS011;44771;49.982;8.560;2023-06-01T07:47:20;13.82;;;12.13;;
58982;SDS011;44771;49.982;8.560;2023-06-01T07:52:22;13.23;;;11.93;;
58982;SDS011;44771;49.982;8.560;2023-06-01T07:57:24;12.68;;;11.45;;
58982;SDS011;44771;49.982;8.560;2023-06-01T08:02:27;12.80;;;11.82;;
58982;SDS011;44771;49.982;8.560;2023-06-01T08:07:29;12.10;;;11.40;;
58982;SDS011;44771;49.982;8.560;2023-06-01T08:12:31;11.32;;;10.32;;
58982;SDS011;44771;49.982;8.560;2023-06-01T08:17:34;11.48;;;9.80;;
58982;SDS011;44771;49.982;8.560;2023-06-01T08:22:36;12.10;;;10.95;;
58982;SDS011;44771;49.982;8.560;2023-06-01T08:27:38;12.63;;;11.32;;
58982;SDS011;44771;49.982;8.560;2023-06-01T08:32:41;13.32;;;10.50;;
58982;SDS011;44771;49.982;8.560;2023-06-01T08:37:43;11.07;;;10.27;;
58982;SDS011;44771;49.982;8.560;2023-06-01T08:42:46;10.57;;;9.77;;
58982;SDS011;44771;49.982;8.560;2023-06-01T08:47:58;16.65;;;11.05;;
58982;SDS011;44771;49.982;8.560;2023-06-01T08:53:05;13.13;;;9.90;;
58982;SDS011;44771;49.982;8.560;2023-06-01T08:58:13;11.07;;;9.85;;
58982;SDS011;44771;49.982;8.560;2023-06-01T09:03:17;10.30;;;9.45;;
58982;SDS011;44771;49.982;8.560;2023-06-01T09:08:19;10.90;;;9.80;;
58982;SDS011;44771;49.982;8.560;2023-06-01T09:13:32;11.85;;;10.38;;
58982;SDS011;44771;49.982;8.560;2023-06-01T09:18:37;11.43;;;10.52;;
58982;SDS011;44771;49.982;8.560;2023-06-01T09:24:17;11.32;;;10.20;;
58982;SDS011;44771;49.982;8.560;2023-06-01T09:29:25;9.88;;;8.98;;
58982;SDS011;44771;49.982;8.560;2023-06-01T09:40:22;10.27;;;9.48;;
58982;SDS011;44771;49.982;8.560;2023-06-01T09:45:34;10.02;;;9.18;;
58982;SDS011;44771;49.982;8.560;2023-06-01T10:01:15;11.10;;;10.18;;
58982;SDS011;44771;49.982;8.560;2023-06-01T10:06:28;9.98;;;9.05;;
58982;SDS011;44771;49.982;8.560;2023-06-01T10:11:40;9.68;;;8.98;;
58982;SDS011;44771;49.982;8.560;2023-06-01T10:16:52;11.00;;;9.93;;
58982;SDS011;44771;49.982;8.560;2023-06-01T10:21:57;13.98;;;9.55;;
58982;SDS011;44771;49.982;8.560;2023-06-01T10:27:09;9.80;;;9.00;;
58982;SDS011;44771;49.982;8.560;2023-06-01T10:48:57;10.30;;;8.93;;
58982;SDS011;44771;49.982;8.560;2023-06-01T10:59:40;9.50;;;8.70;;
58982;SDS011;44771;49.982;8.560;2023-06-01T11:04:47;14.55;;;10.40;;
58982;SDS011;44771;49.982;8.560;2023-06-01T11:09:52;9.05;;;8.45;;
58982;SDS011;44771;49.982;8.560;2023-06-01T11:20:23;9.80;;;8.93;;
58982;SDS011;44771;49.982;8.560;2023-06-01T11:25:26;10.18;;;9.38;;
58982;SDS011;44771;49.982;8.560;2023-06-01T11:30:28;9.77;;;8.88;;
58982;SDS011;44771;49.982;8.560;2023-06-01T11:35:32;9.23;;;8.55;;
58982;SDS011;44771;49.982;8.560;2023-06-01T11:40:34;9.77;;;8.80;;
58982;SDS011;44771;49.982;8.560;2023-06-01T11:45:40;9.68;;;8.98;;
58982;SDS011;44771;49.982;8.560;2023-06-01T11:50:47;11.23;;;9.77;;
58982;SDS011;44771;49.982;8.560;2023-06-01T11:55:49;10.07;;;8.45;;
58982;SDS011;44771;49.982;8.560;2023-06-01T12:00:51;9.82;;;8.73;;
58982;SDS011;44771;49.982;8.560;2023-06-01T12:05:57;10.52;;;9.63;;
58982;SDS011;44771;49.982;8.560;2023-06-01T12:10:59;9.43;;;8.15;;
58982;SDS011;44771;49.982;8.560;2023-06-01T12:16:02;10.15;;;9.35;;
58982;SDS011;44771;49.982;8.560;2023-06-01T12:21:23;11.20;;;8.43;;
58982;SDS011;44771;49.982;8.560;2023-06-01T12:31:39;9.23;;;8.35;;
58982;SDS011;44771;49.982;8.560;2023-06-01T12:37:13;10.15;;;9.10;;
58982;SDS011;44771;49.982;8.560;2023-06-01T12:53:49;9.70;;;8.80;;
58982;SDS011;44771;49.982;8.560;2023-06-01T13:10:15;9.68;;;8.65;;
58982;SDS011;44771;49.982;8.560;2023-06-01T13:15:17;10.95;;;9.77;;
58982;SDS011;44771;49.982;8.560;2023-06-01T13:26:03;10.02;;;8.65;;
58982;SDS011;44771;49.982;8.560;2023-06-01T13:36:49;10.13;;;9.25;;
58982;SDS011;44771;49.982;8.560;2023-06-01T13:53:11;11.12;;;9.32;;
58982;SDS011;44771;49.982;8.560;2023-06-01T13:58:56;10.38;;;9.57;;
58982;SDS011;44771;49.982;8.560;2023-06-01T14:09:36;10.25;;;9.35;;
58982;SDS011;44771;49.982;8.560;2023-06-01T14:15:04;9.45;;;8.55;;
58982;SDS011;44771;49.982;8.560;2023-06-01T14:20:25;9.18;;;8.25;;
58982;SDS011;44771;49.982;8.560;2023-06-01T14:25:57;9.30;;;8.55;;
58982;SDS011;44771;49.982;8.560;2023-06-01T14:31:29;10.82;;;9.55;;
58982;SDS011;44771;49.982;8.560;2023-06-01T14:36:31;11.93;;;10.77;;
58982;SDS011;44771;49.982;8.560;2023-06-01T14:41:50;10.20;;;9.27;;
58982;SDS011;44771;49.982;8.560;2023-06-01T14:47:23;13.32;;;9.18;;
58982;SDS011;44771;49.982;8.560;2023-06-01T14:52:25;9.73;;;8.73;;
58982;SDS011;44771;49.982;8.560;2023-06-01T14:57:29;9.50;;;8.70;;
58982;SDS011;44771;49.982;8.560;2023-06-01T15:02:33;11.55;;;8.63;;
58982;SDS011;44771;49.982;8.560;2023-06-01T15:07:35;10.27;;;9.20;;
58982;SDS011;44771;49.982;8.560;2023-06-01T15:12:44;10.77;;;9.88;;
58982;SDS011;44771;49.982;8.560;2023-06-01T15:17:48;11.43;;;10.40;;
58982;SDS011;44771;49.982;8.560;2023-06-01T15:22:49;9.15;;;8.30;;
58982;SDS011;44771;49.982;8.560;2023-06-01T15:27:51;10.85;;;9.55;;
58982;SDS011;44771;49.982;8.560;2023-06-01T15:33:03;11.10;;;10.20;;
58982;SDS011;44771;49.982;8.560;2023-06-01T15:38:18;9.88;;;9.07;;
58982;SDS011;44771;49.982;8.560;2023-06-01T15:43:23;11.23;;;10.35;;
58982;SDS011;44771;49.982;8.560;2023-06-01T15:53:31;12.30;;;11.00;;
58982;SDS011;44771;49.982;8.560;2023-06-01T15:58:33;12.63;;;10.45;;
58982;SDS011;44771;49.982;8.560;2023-06-01T16:03:43;12.48;;;11.48;;
58982;SDS011;44771;49.982;8.560;2023-06-01T16:08:51;14.23;;;12.93;;
58982;SDS011;44771;49.982;8.560;2023-06-01T16:13:56;12.70;;;11.60;;
58982;SDS011;44771;49.982;8.560;2023-06-01T16:19:02;12.82;;;11.52;;
58982;SDS011;44771;49.982;8.560;2023-06-01T16:24:04;14.40;;;12.95;;
58982;SDS011;44771;49.982;8.560;2023-06-01T16:29:06;13.68;;;11.00;;
58982;SDS011;44771;49.982;8.560;2023-06-01T16:34:10;12.55;;;11.35;;
58982;SDS011;44771;49.982;8.560;2023-06-01T16:39:21;13.15;;;11.95;;
58982;SDS011;44771;49.982;8.560;2023-06-01T16:44:29;15.77;;;14.25;;
58982;SDS011;44771;49.982;8.560;2023-06-01T16:49:32;15.90;;;14.05;;
58982;SDS011;44771;49.982;8.560;2023-06-01T16:54:39;15.43;;;13.38;;
58982;SDS011;44771;49.982;8.560;2023-06-01T16:59:44;13.25;;;11.90;;
58982;SDS011;44771;49.982;8.560;2023-06-01T17:04:47;14.00;;;12.80;;
58982;SDS011;44771;49.982;8.560;2023-06-01T17:09:52;14.85;;;13.27;;
58982;SDS011;44771;49.982;8.560;2023-06-01T17:20:38;20.05;;;13.68;;
58982;SDS011;44771;49.982;8.560;2023-06-01T17:25:40;14.45;;;12.95;;
58982;SDS011;44771;49.982;8.560;2023-06-01T17:30:44;15.85;;;14.32;;
58982;SDS011;44771;49.982;8.560;2023-06-01T17:35:48;15.00;;;13.32;;
58982;SDS011;44771;49.982;8.560;2023-06-01T17:40:56;16.25;;;14.27;;
58982;SDS011;44771;49.982;8.560;2023-06-01T17:46:00;15.65;;;14.00;;
58982;SDS011;44771;49.982;8.560;2023-06-01T17:51:05;14.65;;;13.10;;
58982;SDS011;44771;49.982;8.560;2023-06-01T17:56:14;14.45;;;13.20;;
58982;SDS011;44771;49.982;8.560;2023-06-01T18:01:16;15.70;;;14.13;;
58982;SDS011;44771;49.982;8.560;2023-06-01T18:06:25;16.92;;;14.70;;
58982;SDS011;44771;49.982;8.560;2023-06-01T18:16:56;15.45;;;14.25;;
58982;SDS011;44771;49.982;8.560;2023-06-01T18:21:59;17.80;;;14.15;;
58982;SDS011;44771;49.982;8.560;2023-06-01T18:27:07;16.42;;;14.05;;
58982;SDS011;44771;49.982;8.560;2023-06-01T18:32:09;15.75;;;14.32;;
58982;SDS011;44771;49.982;8.560;2023-06-01T18:37:16;15.45;;;13.98;;
58982;SDS011;44771;49.982;8.560;2023-06-01T18:42:18;15.02;;;13.60;;
58982;SDS011;44771;49.982;8.560;2023-06-01T18:47:20;16.58;;;12.80;;
58982;SDS011;44771;49.982;8.560;2023-06-01T18:52:23;15.43;;;13.95;;
58982;SDS011;44771;49.982;8.560;2023-06-01T18:57:25;15.10;;;13.70;;
58982;SDS011;44771;49.982;8.560;2023-06-01T19:02:27;15.98;;;14.65;;
58982;SDS011;44771;49.982;8.560;2023-06-01T19:07:46;17.25;;;15.18;;
58982;SDS011;44771;49.982;8.560;2023-06-01T19:12:49;17.62;;;15.90;;
58982;SDS011;44771;49.982;8.560;2023-06-01T19:17:54;15.77;;;14.25;;
58982;SDS011;44771;49.982;8.560;2023-06-01T19:28:00;17.05;;;14.93;;
58982;SDS011;44771;49.982;8.560;2023-06-01T19:33:01;13.93;;;12.60;;
58982;SDS011;44771;49.982;8.560;2023-06-01T19:38:06;16.48;;;14.75;;
58982;SDS011;44771;49.982;8.560;2023-06-01T19:43:17;24.63;;;13.90;;
58982;SDS011;44771;49.982;8.560;2023-06-01T19:48:35;15.68;;;14.38;;
58982;SDS011;44771;49.982;8.560;2023-06-01T19:53:39;15.35;;;14.02;;
58982;SDS011;44771;49.982;8.560;2023-06-01T19:58:47;15.30;;;12.27;;
58982;SDS011;44771;49.982;8.560;2023-06-01T20:03:51;18.30;;;14.68;;
58982;SDS011;44771;49.982;8.560;2023-06-01T20:09:01;15.35;;;13.48;;
58982;SDS011;44771;49.982;8.560;2023-06-01T20:14:11;15.23;;;13.55;;
58982;SDS011;44771;49.982;8.560;2023-06-01T20:19:14;15.27;;;13.90;;
58982;SDS011;44771;49.982;8.560;2023-06-01T20:24:24;15.68;;;13.95;;
58982;SDS011;44771;49.982;8.560;2023-06-01T20:29:30;16.67;;;13.73;;
58982;SDS011;44771;49.982;8.560;2023-06-01T20:34:34;14.57;;;13.07;;
58982;SDS011;44771;49.982;8.560;2023-06-01T20:39:41;17.42;;;13.88;;
58982;SDS011;44771;49.982;8.560;2023-06-01T20:44:47;15.98;;;14.30;;
58982;SDS011;44771;49.982;8.560;2023-06-01T20:49:59;24.15;;;14.93;;
58982;SDS011;44771;49.982;8.560;2023-06-01T20:55:17;15.88;;;14.20;;
58982;SDS011;44771;49.982;8.560;2023-06-01T21:00:28;17.40;;;14.23;;
58982;SDS011;44771;49.982;8.560;2023-06-01T21:05:31;19.25;;;14.07;;
58982;SDS011;44771;49.982;8.560;2023-06-01T21:10:37;20.12;;;14.30;;
58982;SDS011;44771;49.982;8.560;2023-06-01T21:15:43;22.75;;;14.82;;
58982;SDS011;44771;49.982;8.560;2023-06-01T21:25:50;19.00;;;14.45;;
58982;SDS011;44771;49.982;8.560;2023-06-01T21:30:52;16.73;;;15.05;;
58982;SDS011;44771;49.982;8.560;2023-06-01T21:35:54;25.40;;;16.45;;
58982;SDS011;44771;49.982;8.560;2023-06-01T21:40:57;19.02;;;15.85;;
58982;SDS011;44771;49.982;8.560;2023-06-01T21:45:59;19.35;;;15.02;;
58982;SDS011;44771;49.982;8.560;2023-06-01T21:51:02;21.17;;;15.27;;
58982;SDS011;44771;49.982;8.560;2023-06-01T21:56:05;19.80;;;15.25;;
58982;SDS011;44771;49.982;8.560;2023-06-01T22:01:08;27.98;;;17.45;;
58982;SDS011;44771;49.982;8.560;2023-06-01T22:06:10;19.42;;;15.82;;
58982;SDS011;44771;49.982;8.560;2023-06-01T22:11:14;17.70;;;15.20;;
58982;SDS011;44771;49.982;8.560;2023-06-01T22:16:18;20.30;;;16.12;;
58982;SDS011;44771;49.982;8.560;2023-06-01T22:21:20;19.02;;;16.35;;
58982;SDS011;44771;49.982;8.560;2023-06-01T22:26:23;23.35;;;15.40;;
58982;SDS011;44771;49.982;8.560;2023-06-01T22:31:25;18.87;;;15.50;;
58982;SDS011;44771;49.982;8.560;2023-06-01T22:36:27;19.27;;;14.13;;
58982;SDS011;44771;49.982;8.560;2023-06-01T22:41:30;18.42;;;16.15;;
58982;SDS011;44771;49.982;8.560;2023-06-01T22:46:32;17.90;;;16.00;;
58982;SDS011;44771;49.982;8.560;2023-06-01T22:51:34;18.65;;;16.65;;
58982;SDS011;44771;49.982;8.560;2023-06-01T22:56:38;18.17;;;16.12;;
58982;SDS011;44771;49.982;8.560;2023-06-01T23:01:40;18.05;;;15.05;;
58982;SDS011;44771;49.982;8.560;2023-06-01T23:06:42;19.10;;;16.70;;
58982;SDS011;44771;49.982;8.560;2023-06-01T23:11:45;17.80;;;16.00;;
58982;SDS011;44771;49.982;8.560;2023-06-01T23:16:47;23.95;;;16.83;;
58982;SDS011;44771;49.982;8.560;2023-06-01T23:21:49;20.40;;;15.88;;
58982;SDS011;44771;49.982;8.560;2023-06-01T23:26:52;17.33;;;15.20;;
58982;SDS011;44771;49.982;8.560;2023-06-01T23:31:54;23.87;;;15.85;;
58982;SDS011;44771;49.982;8.560;2023-06-01T23:36:56;18.83;;;16.80;;
58982;SDS011;44771;49.982;8.560;2023-06-01T23:41:59;18.98;;;17.15;;
58982;SDS011;44771;49.982;8.560;2023-06-01T23:47:01;18.90;;;17.08;;
58982;SDS011;44771;49.982;8.560;2023-06-01T23:52:03;17.70;;;16.00;;
58982;SDS011;44771;49.982;8.560;2023-06-01T23:57:07;19.17;;;17.12;;
